createdAt,value
2018-09-24T00:00:08.538Z,17.705688
2018-09-24T00:01:08.482Z,17.675476
2018-09-24T00:02:08.616Z,17.776184
2018-09-24T00:03:08.622Z,17.715759
2018-09-24T00:04:08.757Z,17.786255
2018-09-24T00:05:08.868Z,17.776184
2018-09-24T00:06:08.981Z,17.574768
2018-09-24T00:07:09.007Z,17.443848
2018-09-24T00:08:09.081Z,17.47406
2018-09-24T00:09:09.178Z,17.393494
2018-09-24T00:10:09.309Z,17.393494
2018-09-24T00:11:09.468Z,17.22229
2018-09-24T00:12:09.497Z,17.192078
2018-09-24T00:13:09.575Z,17.22229
2018-09-24T00:14:09.679Z,17.282715
2018-09-24T00:15:09.780Z,17.463989
2018-09-24T00:16:09.788Z,17.282715
2018-09-24T00:17:09.910Z,17.202148
2018-09-24T00:18:10.009Z,17.171936
2018-09-24T00:19:10.119Z,17.272644
2018-09-24T00:20:10.301Z,17.393494
2018-09-24T00:21:10.319Z,17.322998
2018-09-24T00:22:10.394Z,17.322998
2018-09-24T00:23:10.453Z,17.232361
2018-09-24T00:24:10.488Z,17.272644
2018-09-24T00:25:10.640Z,17.192078
2018-09-24T00:26:10.721Z,17.192078
2018-09-24T00:27:10.733Z,17.161865
2018-09-24T00:28:10.785Z,17.131653
2018-09-24T00:29:10.866Z,17.071228
2018-09-24T00:30:10.923Z,17.161865
2018-09-24T00:31:10.910Z,17.34314
2018-09-24T00:32:11.045Z,17.373352
2018-09-24T00:33:11.176Z,17.312927
2018-09-24T00:34:11.273Z,17.232361
2018-09-24T00:35:11.409Z,17.10144
2018-09-24T00:36:11.579Z,17.141724
2018-09-24T00:37:11.669Z,17.131653
2018-09-24T00:38:11.775Z,17.071228
2018-09-24T00:39:11.805Z,17.121582
2018-09-24T00:40:11.898Z,16.980591
2018-09-24T00:41:12.057Z,17.020874
2018-09-24T00:42:12.087Z,17.020874
2018-09-24T00:43:12.120Z,16.829529
2018-09-24T00:44:12.133Z,16.58783
2018-09-24T00:45:12.316Z,16.688538
2018-09-24T00:46:13.269Z,16.769104
2018-09-24T00:47:12.371Z,16.738892
2018-09-24T00:48:12.487Z,16.829529
2018-09-24T00:49:12.652Z,16.859741
2018-09-24T00:50:12.735Z,16.759033
2018-09-24T00:51:12.855Z,16.859741
2018-09-24T00:52:12.908Z,16.920166
2018-09-24T00:53:13.014Z,16.869812
2018-09-24T00:54:13.160Z,16.829529
2018-09-24T00:55:13.224Z,16.829529
2018-09-24T00:56:13.356Z,16.829529
2018-09-24T00:57:13.380Z,16.618042
2018-09-24T00:58:13.426Z,16.618042
2018-09-24T00:59:13.475Z,16.728821
2018-09-24T01:00:13.502Z,16.759033
2018-09-24T01:01:13.659Z,16.799316
2018-09-24T01:02:13.728Z,16.658325
2018-09-24T01:03:13.784Z,16.759033
2018-09-24T01:04:13.884Z,16.638184
2018-09-24T01:05:14.010Z,16.58783
2018-09-24T01:06:14.236Z,16.688538
2018-09-24T01:07:14.118Z,16.678467
2018-09-24T01:08:14.246Z,16.738892
2018-09-24T01:09:14.348Z,16.618042
2018-09-24T01:10:14.397Z,16.497192
2018-09-24T01:11:14.508Z,16.436768
2018-09-24T01:12:14.640Z,16.315918
2018-09-24T01:13:14.792Z,16.456909
2018-09-24T01:14:14.872Z,16.456909
2018-09-24T01:15:14.953Z,16.487122
2018-09-24T01:16:15.053Z,16.537476
2018-09-24T01:17:15.161Z,16.406555
2018-09-24T01:18:15.283Z,16.366272
2018-09-24T01:19:15.331Z,16.46698
2018-09-24T01:20:15.447Z,16.396484
2018-09-24T01:21:15.549Z,16.406555
2018-09-24T01:22:15.655Z,16.305847
2018-09-24T01:23:15.799Z,16.245422
2018-09-24T01:24:15.917Z,16.235352
2018-09-24T01:25:16.029Z,16.356201
2018-09-24T01:26:16.147Z,16.487122
2018-09-24T01:27:16.269Z,16.537476
2018-09-24T01:28:16.366Z,16.567688
2018-09-24T01:29:16.445Z,16.396484
2018-09-24T01:30:16.530Z,16.033936
2018-09-24T01:31:16.608Z,15.983582
2018-09-24T01:32:16.611Z,15.96344
2018-09-24T01:33:16.817Z,16.003723
2018-09-24T01:34:16.743Z,15.852661
2018-09-24T01:35:16.831Z,15.59082
2018-09-24T01:36:16.881Z,15.439758
2018-09-24T01:37:17.142Z,15.600891
2018-09-24T01:38:17.122Z,15.661316
2018-09-24T01:39:17.207Z,15.651245
2018-09-24T01:40:17.308Z,15.570679
2018-09-24T01:41:18.393Z,15.59082
2018-09-24T01:42:17.505Z,15.721741
2018-09-24T01:43:17.541Z,15.731812
2018-09-24T01:44:17.558Z,15.731812
2018-09-24T01:45:17.669Z,15.671387
2018-09-24T01:46:17.750Z,15.721741
2018-09-24T01:47:17.768Z,15.802307
2018-09-24T01:48:17.812Z,15.872803
2018-09-24T01:49:17.925Z,15.852661
2018-09-24T01:50:17.966Z,15.691528
2018-09-24T01:51:18.056Z,15.570679
2018-09-24T01:52:18.157Z,15.762024
2018-09-24T01:53:18.146Z,15.812378
2018-09-24T01:54:18.243Z,15.671387
2018-09-24T01:55:18.345Z,15.540466
2018-09-24T01:56:18.445Z,15.449829
2018-09-24T01:57:18.562Z,15.600891
2018-09-24T01:58:18.678Z,15.671387
2018-09-24T01:59:18.817Z,15.691528
2018-09-24T02:00:18.999Z,15.731812
2018-09-24T02:01:18.941Z,15.651245
2018-09-24T02:02:19.010Z,15.852661
2018-09-24T02:03:19.129Z,15.802307
2018-09-24T02:04:19.245Z,15.872803
2018-09-24T02:05:19.292Z,15.913086
2018-09-24T02:06:19.300Z,16.003723
2018-09-24T02:07:19.419Z,15.943298
2018-09-24T02:08:19.432Z,16.023865
2018-09-24T02:09:19.479Z,16.08429
2018-09-24T02:10:19.633Z,15.852661
2018-09-24T02:11:19.722Z,15.691528
2018-09-24T02:12:19.818Z,15.751953
2018-09-24T02:13:19.988Z,15.882874
2018-09-24T02:14:20.092Z,15.83252
2018-09-24T02:15:20.260Z,15.852661
2018-09-24T02:16:20.364Z,15.762024
2018-09-24T02:17:20.392Z,15.751953
2018-09-24T02:18:20.409Z,15.731812
2018-09-24T02:19:20.520Z,15.762024
2018-09-24T02:20:20.593Z,15.671387
2018-09-24T02:21:20.639Z,15.762024
2018-09-24T02:22:20.721Z,15.691528
2018-09-24T02:23:20.838Z,15.751953
2018-09-24T02:24:20.974Z,15.812378
2018-09-24T02:25:21.080Z,15.651245
2018-09-24T02:26:21.053Z,15.661316
2018-09-24T02:27:21.185Z,15.651245
2018-09-24T02:28:21.354Z,15.540466
2018-09-24T02:29:21.422Z,15.469971
2018-09-24T02:30:21.576Z,15.661316
2018-09-24T02:31:21.636Z,15.59082
2018-09-24T02:32:21.830Z,15.721741
2018-09-24T02:33:21.751Z,15.762024
2018-09-24T02:34:21.910Z,15.882874
2018-09-24T02:35:21.974Z,15.882874
2018-09-24T02:36:22.098Z,15.872803
2018-09-24T02:37:22.223Z,15.903015
2018-09-24T02:38:22.315Z,15.762024
2018-09-24T02:39:22.391Z,15.802307
2018-09-24T02:40:22.518Z,15.751953
2018-09-24T02:41:22.482Z,15.751953
2018-09-24T02:42:22.521Z,15.701599
2018-09-24T02:43:22.651Z,15.701599
2018-09-24T02:44:22.754Z,15.701599
2018-09-24T02:45:22.844Z,15.691528
2018-09-24T02:46:22.900Z,15.782166
2018-09-24T02:47:22.997Z,15.812378
2018-09-24T02:48:22.941Z,15.83252
2018-09-24T02:49:22.976Z,15.83252
2018-09-24T02:50:23.040Z,15.802307
2018-09-24T02:51:23.124Z,15.802307
2018-09-24T02:52:23.121Z,15.731812
2018-09-24T02:53:23.224Z,15.751953
2018-09-24T02:54:23.319Z,15.802307
2018-09-24T02:55:23.328Z,15.84259
2018-09-24T02:56:23.453Z,15.721741
2018-09-24T02:57:23.463Z,15.59082
2018-09-24T02:58:23.481Z,15.731812
2018-09-24T02:59:23.673Z,15.631104
2018-09-24T03:00:23.773Z,15.621033
2018-09-24T03:01:23.867Z,15.600891
2018-09-24T03:02:23.938Z,15.510254
2018-09-24T03:03:23.949Z,15.500183
2018-09-24T03:04:24.077Z,15.600891
2018-09-24T03:05:24.191Z,15.721741
2018-09-24T03:06:24.303Z,15.59082
2018-09-24T03:07:24.340Z,15.429688
2018-09-24T03:08:24.384Z,15.359192
2018-09-24T03:09:24.495Z,15.389404
2018-09-24T03:10:24.610Z,15.429688
2018-09-24T03:11:24.681Z,15.258484
2018-09-24T03:12:24.867Z,15.288696
2018-09-24T03:13:24.815Z,15.167847
2018-09-24T03:14:24.930Z,15.328979
2018-09-24T03:15:25.039Z,15.409546
2018-09-24T03:16:25.147Z,15.268555
2018-09-24T03:17:25.217Z,15.268555
2018-09-24T03:18:25.194Z,15.187988
2018-09-24T03:19:25.208Z,15.167847
2018-09-24T03:20:25.286Z,15.097351
2018-09-24T03:21:25.365Z,14.926147
2018-09-24T03:22:25.439Z,15.077209
2018-09-24T03:23:25.469Z,15.147705
2018-09-24T03:24:25.602Z,15.248413
2018-09-24T03:25:25.682Z,15.187988
2018-09-24T03:26:25.818Z,15.177917
2018-09-24T03:27:25.888Z,15.298767
2018-09-24T03:28:25.918Z,15.328979
2018-09-24T03:29:26.073Z,15.389404
2018-09-24T03:30:26.292Z,15.369263
2018-09-24T03:31:26.252Z,15.409546
2018-09-24T03:32:26.381Z,15.389404
2018-09-24T03:33:26.336Z,15.449829
2018-09-24T03:34:26.442Z,15.369263
2018-09-24T03:35:26.514Z,15.318909
2018-09-24T03:36:26.590Z,15.389404
2018-09-24T03:37:26.707Z,15.258484
2018-09-24T03:38:26.830Z,15.177917
2018-09-24T03:39:26.834Z,15.147705
2018-09-24T03:40:26.906Z,15.187988
2018-09-24T03:41:27.000Z,15.258484
2018-09-24T03:42:26.982Z,15.369263
2018-09-24T03:43:26.999Z,15.349121
2018-09-24T03:44:27.057Z,15.268555
2018-09-24T03:45:27.074Z,15.389404
2018-09-24T03:46:27.151Z,15.449829
2018-09-24T03:47:27.226Z,15.480042
2018-09-24T03:48:27.411Z,15.449829
2018-09-24T03:49:27.400Z,15.449829
2018-09-24T03:50:27.486Z,15.268555
2018-09-24T03:51:27.454Z,15.389404
2018-09-24T03:52:27.620Z,15.349121
2018-09-24T03:53:27.577Z,15.359192
2018-09-24T03:54:27.610Z,15.369263
2018-09-24T03:55:27.738Z,15.359192
2018-09-24T03:56:27.844Z,15.097351
2018-09-24T03:57:28.003Z,15.167847
2018-09-24T03:58:28.026Z,15.077209
2018-09-24T03:59:28.176Z,15.137634
2018-09-24T04:00:28.273Z,15.177917
2018-09-24T04:01:28.371Z,15.187988
2018-09-24T04:02:28.395Z,15.167847
2018-09-24T04:03:28.508Z,15.177917
2018-09-24T04:04:28.585Z,15.177917
2018-09-24T04:05:28.745Z,15.328979
2018-09-24T04:06:28.770Z,15.439758
2018-09-24T04:07:28.874Z,15.409546
2018-09-24T04:08:28.994Z,15.369263
2018-09-24T04:09:29.058Z,15.359192
2018-09-24T04:10:29.085Z,15.369263
2018-09-24T04:11:29.201Z,15.288696
2018-09-24T04:12:29.344Z,15.167847
2018-09-24T04:13:29.444Z,15.097351
2018-09-24T04:14:29.557Z,15.177917
2018-09-24T04:15:29.644Z,15.177917
2018-09-24T04:16:29.765Z,15.258484
2018-09-24T04:17:29.769Z,15.077209
2018-09-24T04:18:29.842Z,15.036926
2018-09-24T04:19:29.863Z,15.036926
2018-09-24T04:20:29.984Z,15.016785
2018-09-24T04:21:30.001Z,14.986572
2018-09-24T04:22:30.095Z,14.895935
2018-09-24T04:23:30.240Z,15.067139
2018-09-24T04:24:30.413Z,15.147705
2018-09-24T04:25:30.418Z,15.107422
2018-09-24T04:26:30.450Z,15.137634
2018-09-24T04:27:30.478Z,15.077209
2018-09-24T04:28:30.629Z,14.885864
2018-09-24T04:29:30.736Z,14.926147
2018-09-24T04:30:30.916Z,14.865723
2018-09-24T04:31:30.857Z,14.95636
2018-09-24T04:32:30.954Z,15.016785
2018-09-24T04:33:31.061Z,14.966431
2018-09-24T04:34:31.202Z,14.986572
2018-09-24T04:35:31.300Z,14.815369
2018-09-24T04:36:31.404Z,14.553528
2018-09-24T04:37:31.538Z,14.553528
2018-09-24T04:38:31.630Z,14.70459
2018-09-24T04:39:31.804Z,14.664307
2018-09-24T04:40:31.899Z,14.493103
2018-09-24T04:41:31.858Z,14.58374
2018-09-24T04:42:31.929Z,14.634094
2018-09-24T04:43:32.099Z,14.734802
2018-09-24T04:44:32.219Z,14.70459
2018-09-24T04:45:32.258Z,14.553528
2018-09-24T04:46:32.297Z,14.70459
2018-09-24T04:47:32.516Z,14.785156
2018-09-24T04:48:32.461Z,14.805298
2018-09-24T04:49:32.531Z,14.734802
2018-09-24T04:50:32.605Z,14.805298
2018-09-24T04:51:32.645Z,14.765015
2018-09-24T04:52:32.776Z,14.684448
2018-09-24T04:53:32.785Z,14.714661
2018-09-24T04:54:32.906Z,14.674377
2018-09-24T04:55:33.033Z,14.624023
2018-09-24T04:56:33.079Z,14.58374
2018-09-24T04:57:33.147Z,14.70459
2018-09-24T04:58:33.344Z,14.714661
2018-09-24T04:59:33.377Z,14.744873
2018-09-24T05:00:33.524Z,14.714661
2018-09-24T05:01:33.541Z,14.613953
2018-09-24T05:02:33.614Z,14.664307
2018-09-24T05:03:33.615Z,14.775085
2018-09-24T05:04:33.824Z,14.634094
2018-09-24T05:05:33.815Z,14.513245
2018-09-24T05:06:33.837Z,14.674377
2018-09-24T05:07:33.855Z,14.613953
2018-09-24T05:08:33.916Z,14.765015
2018-09-24T05:09:33.917Z,14.936218
2018-09-24T05:10:34.036Z,14.815369
2018-09-24T05:11:34.137Z,14.684448
2018-09-24T05:12:34.143Z,14.865723
2018-09-24T05:13:34.163Z,14.865723
2018-09-24T05:14:34.233Z,14.916077
2018-09-24T05:15:34.326Z,14.815369
2018-09-24T05:16:34.355Z,14.916077
2018-09-24T05:17:34.316Z,14.926147
2018-09-24T05:18:34.349Z,14.865723
2018-09-24T05:19:34.347Z,14.362183
2018-09-24T05:20:34.505Z,14.251404
2018-09-24T05:21:34.545Z,14.402466
2018-09-24T05:22:34.598Z,14.734802
2018-09-24T05:23:34.696Z,14.734802
2018-09-24T05:24:34.821Z,14.765015
2018-09-24T05:25:34.923Z,14.815369
2018-09-24T05:26:34.995Z,14.734802
2018-09-24T05:27:35.108Z,14.845581
2018-09-24T05:28:35.158Z,14.885864
2018-09-24T05:29:35.168Z,14.855652
2018-09-24T05:30:35.266Z,14.744873
2018-09-24T05:31:35.348Z,14.442749
2018-09-24T05:32:35.393Z,14.493103
2018-09-24T05:33:35.413Z,14.513245
2018-09-24T05:34:35.566Z,14.613953
2018-09-24T05:35:35.490Z,14.45282
2018-09-24T05:36:35.751Z,14.442749
2018-09-24T05:37:35.656Z,14.493103
2018-09-24T05:38:35.726Z,14.382324
2018-09-24T05:39:35.747Z,14.402466
2018-09-24T05:40:35.812Z,14.483032
2018-09-24T05:41:35.839Z,14.483032
2018-09-24T05:42:35.882Z,14.251404
2018-09-24T05:43:35.906Z,14.281616
2018-09-24T05:44:35.920Z,14.432678
2018-09-24T05:45:35.986Z,14.553528
2018-09-24T05:46:36.122Z,14.513245
2018-09-24T05:47:36.212Z,14.553528
2018-09-24T05:48:36.271Z,14.442749
2018-09-24T05:49:36.374Z,14.33197
2018-09-24T05:50:36.433Z,14.412537
2018-09-24T05:51:36.505Z,14.513245
2018-09-24T05:52:36.606Z,14.412537
2018-09-24T05:53:36.639Z,14.281616
2018-09-24T05:54:36.669Z,14.362183
2018-09-24T05:55:36.702Z,14.45282
2018-09-24T05:56:36.743Z,14.553528
2018-09-24T05:57:36.873Z,14.523315
2018-09-24T05:58:36.876Z,14.412537
2018-09-24T05:59:36.985Z,14.412537
2018-09-24T06:00:37.031Z,14.402466
2018-09-24T06:01:37.104Z,14.442749
2018-09-24T06:02:37.236Z,14.493103
2018-09-24T06:03:37.273Z,14.58374
2018-09-24T06:04:37.402Z,14.593811
2018-09-24T06:05:37.376Z,14.775085
2018-09-24T06:06:37.431Z,14.845581
2018-09-24T06:07:37.494Z,14.744873
2018-09-24T06:08:37.576Z,14.744873
2018-09-24T06:09:37.643Z,14.845581
2018-09-24T06:10:37.654Z,14.895935
2018-09-24T06:11:37.706Z,14.926147
2018-09-24T06:12:37.854Z,14.815369
2018-09-24T06:13:38.000Z,14.865723
2018-09-24T06:14:38.025Z,14.624023
2018-09-24T06:15:38.064Z,14.634094
2018-09-24T06:16:38.117Z,14.785156
2018-09-24T06:17:39.253Z,14.805298
2018-09-24T06:18:38.309Z,14.855652
2018-09-24T06:19:38.439Z,14.95636
2018-09-24T06:20:38.503Z,15.077209
2018-09-24T06:21:38.538Z,14.895935
2018-09-24T06:22:38.604Z,14.936218
2018-09-24T06:23:38.723Z,15.016785
2018-09-24T06:24:38.839Z,15.016785
2018-09-24T06:25:38.888Z,15.036926
2018-09-24T06:26:38.948Z,15.107422
2018-09-24T06:27:38.960Z,15.067139
2018-09-24T06:28:38.974Z,14.926147
2018-09-24T06:29:39.103Z,14.916077
2018-09-24T06:30:39.168Z,14.926147
2018-09-24T06:31:39.274Z,14.805298
2018-09-24T06:32:39.395Z,14.865723
2018-09-24T06:33:39.464Z,14.926147
2018-09-24T06:34:39.504Z,14.805298
2018-09-24T06:35:39.627Z,14.664307
2018-09-24T06:36:39.664Z,14.664307
2018-09-24T06:37:39.725Z,14.865723
2018-09-24T06:38:39.778Z,15.077209
2018-09-24T06:39:39.823Z,15.228271
2018-09-24T06:41:55.606Z,15.349121
2018-09-24T06:42:55.650Z,15.500183
2018-09-24T07:09:50.566Z,15.177917
2018-09-24T07:10:50.693Z,15.147705
2018-09-24T07:11:50.669Z,15.137634
2018-09-24T07:12:50.761Z,15.268555
2018-09-24T07:13:50.870Z,15.369263
2018-09-24T07:14:50.849Z,15.409546
2018-09-24T07:15:50.897Z,15.328979
2018-09-24T07:16:50.963Z,15.328979
2018-09-24T07:17:51.006Z,15.298767
2018-09-24T07:18:51.147Z,15.318909
2018-09-24T07:19:51.155Z,15.258484
2018-09-24T07:20:51.258Z,14.986572
2018-09-24T07:21:51.368Z,15.016785
2018-09-24T07:22:52.396Z,15.117493
2018-09-24T07:23:51.425Z,14.966431
2018-09-24T07:24:51.478Z,15.067139
2018-09-24T07:25:51.533Z,15.137634
2018-09-24T07:26:51.652Z,15.218201
2018-09-24T07:27:51.704Z,15.167847
2018-09-24T07:28:51.708Z,15.107422
2018-09-24T07:29:51.878Z,14.986572
2018-09-24T07:30:51.830Z,14.936218
2018-09-24T07:31:52.115Z,14.916077
2018-09-24T07:32:51.953Z,14.855652
2018-09-24T07:33:51.968Z,14.926147
2018-09-24T07:34:52.062Z,15.016785
2018-09-24T07:35:52.108Z,14.966431
2018-09-24T07:36:52.234Z,15.016785
2018-09-24T07:37:52.273Z,15.077209
2018-09-24T07:38:52.313Z,15.036926
2018-09-24T07:39:52.349Z,15.016785
2018-09-24T07:40:52.354Z,14.95636
2018-09-24T07:41:52.427Z,14.936218
2018-09-24T07:42:52.518Z,15.036926
2018-09-24T07:43:52.591Z,15.077209
2018-09-24T07:44:52.712Z,15.147705
2018-09-24T07:45:52.824Z,15.137634
2018-09-24T07:46:52.904Z,15.187988
2018-09-24T07:47:52.994Z,15.218201
2018-09-24T07:48:53.074Z,15.107422
2018-09-24T07:49:53.118Z,15.107422
2018-09-24T07:50:53.142Z,15.137634
2018-09-24T07:51:53.341Z,15.137634
2018-09-24T07:52:53.294Z,15.077209
2018-09-24T07:53:53.335Z,15.067139
2018-09-24T07:54:53.449Z,15.117493
2018-09-24T07:55:53.587Z,15.177917
2018-09-24T07:56:53.576Z,15.228271
2018-09-24T07:57:53.611Z,15.248413
2018-09-24T07:58:53.662Z,15.228271
2018-09-24T07:59:53.682Z,15.228271
2018-09-24T08:00:53.737Z,15.228271
2018-09-24T08:01:53.788Z,15.258484
2018-09-24T08:02:53.867Z,15.268555
2018-09-24T08:03:53.938Z,15.288696
2018-09-24T08:04:54.105Z,15.349121
2018-09-24T08:05:54.126Z,15.328979
2018-09-24T08:06:54.313Z,15.218201
2018-09-24T08:07:54.198Z,15.167847
2018-09-24T08:08:54.217Z,15.117493
2018-09-24T08:09:54.337Z,15.077209
2018-09-24T08:10:54.356Z,15.097351
2018-09-24T08:11:54.428Z,15.067139
2018-09-24T08:12:54.591Z,15.117493
2018-09-24T08:13:54.657Z,15.167847
2018-09-24T08:14:54.681Z,15.228271
2018-09-24T08:15:55.849Z,15.258484
2018-09-24T08:16:54.888Z,15.318909
2018-09-24T08:17:55.092Z,15.268555
2018-09-24T08:18:55.009Z,15.328979
2018-09-24T08:19:55.068Z,15.288696
2018-09-24T08:20:55.233Z,15.258484
2018-09-24T08:21:55.342Z,15.268555
2018-09-24T08:22:55.321Z,15.187988
2018-09-24T08:23:55.354Z,15.328979
2018-09-24T08:24:55.439Z,15.439758
2018-09-24T08:25:55.515Z,15.298767
2018-09-24T08:26:55.647Z,15.187988
2018-09-24T08:27:55.668Z,15.318909
2018-09-24T08:28:55.783Z,15.449829
2018-09-24T08:29:55.872Z,15.510254
2018-09-24T08:30:55.993Z,15.621033
2018-09-24T08:31:55.992Z,15.691528
2018-09-24T08:32:56.226Z,15.671387
2018-09-24T08:33:56.092Z,15.701599
2018-09-24T08:34:56.188Z,15.520325
2018-09-24T08:35:56.230Z,15.600891
2018-09-24T08:36:56.343Z,15.751953
2018-09-24T08:37:56.400Z,15.903015
2018-09-24T08:38:56.546Z,15.943298
2018-09-24T08:39:56.692Z,15.943298
2018-09-24T08:40:56.688Z,15.923157
2018-09-24T08:41:56.799Z,15.96344
2018-09-24T08:42:56.802Z,15.96344
2018-09-24T08:43:56.880Z,15.96344
2018-09-24T08:44:56.910Z,15.993652
2018-09-24T08:45:56.918Z,16.033936
2018-09-24T08:46:56.977Z,16.09436
2018-09-24T08:47:56.998Z,16.08429
2018-09-24T08:48:57.057Z,16.245422
2018-09-24T08:49:57.188Z,16.33606
2018-09-24T08:50:57.184Z,16.487122
2018-09-24T08:51:57.283Z,16.547546
2018-09-24T08:52:57.384Z,16.607971
2018-09-24T08:53:57.412Z,16.728821
2018-09-24T08:54:57.464Z,16.728821
2018-09-24T08:55:57.656Z,16.728821
2018-09-24T08:56:57.785Z,16.859741
2018-09-24T08:57:57.874Z,16.980591
2018-09-24T08:58:57.884Z,17.10144
2018-09-24T08:59:58.006Z,17.202148
2018-09-24T09:00:58.104Z,17.202148
2018-09-24T09:01:58.215Z,17.322998
2018-09-24T09:02:58.315Z,17.373352
2018-09-24T09:03:58.461Z,17.47406
2018-09-24T09:04:58.517Z,17.302856
2018-09-24T09:05:58.622Z,17.141724
2018-09-24T09:06:58.601Z,17.141724
2018-09-24T09:07:58.744Z,16.950378
2018-09-24T09:08:58.748Z,16.980591
2018-09-24T09:09:58.874Z,17.071228
2018-09-24T09:10:59.033Z,17.10144
2018-09-24T09:11:59.095Z,17.121582
2018-09-24T09:12:59.188Z,17.121582
2018-09-24T09:13:59.320Z,17.041016
2018-09-24T09:14:59.434Z,16.950378
2018-09-24T09:15:59.471Z,16.799316
2018-09-24T09:16:59.585Z,16.789246
2018-09-24T09:17:59.680Z,16.728821
2018-09-24T09:18:59.696Z,16.638184
2018-09-24T09:19:59.792Z,16.678467
2018-09-24T09:20:59.781Z,16.607971
2018-09-24T09:21:59.876Z,16.567688
2018-09-24T09:23:00.001Z,16.507263
2018-09-24T09:24:00.157Z,16.426697
2018-09-24T09:25:00.243Z,16.356201
2018-09-24T09:26:00.309Z,16.386414
2018-09-24T09:27:00.385Z,16.46698
2018-09-24T09:28:00.436Z,16.386414
2018-09-24T09:29:00.547Z,16.386414
2018-09-24T09:30:00.542Z,16.285706
2018-09-24T09:31:00.777Z,16.255493
2018-09-24T09:32:00.734Z,16.285706
2018-09-24T09:33:00.736Z,16.245422
2018-09-24T09:34:00.852Z,16.305847
2018-09-24T09:35:00.870Z,16.205139
2018-09-24T09:36:00.889Z,16.184998
2018-09-24T09:37:00.940Z,16.305847
2018-09-24T09:38:01.075Z,16.235352
2018-09-24T09:39:01.099Z,16.245422
2018-09-24T09:40:01.177Z,16.285706
2018-09-24T09:41:01.305Z,16.305847
2018-09-24T09:42:01.388Z,16.285706
2018-09-24T09:43:01.476Z,16.285706
2018-09-24T09:44:01.491Z,16.366272
2018-09-24T09:45:01.549Z,16.315918
2018-09-24T09:46:01.692Z,16.436768
2018-09-24T09:47:01.810Z,16.789246
2018-09-24T09:48:02.106Z,16.97052
2018-09-24T09:49:02.063Z,17.141724
2018-09-24T09:50:02.065Z,17.423706
2018-09-24T09:51:02.177Z,17.574768
2018-09-24T09:52:02.199Z,17.645264
2018-09-24T09:53:02.296Z,17.816467
2018-09-24T09:54:02.395Z,17.927246
2018-09-24T09:55:02.443Z,17.866821
2018-09-24T09:56:02.540Z,17.655334
2018-09-24T09:57:02.597Z,17.574768
2018-09-24T09:58:02.744Z,17.524414
2018-09-24T09:59:02.912Z,17.423706
2018-09-24T10:00:02.978Z,17.302856
2018-09-24T10:01:03.134Z,16.97052
2018-09-24T10:02:03.101Z,16.97052
2018-09-24T10:03:03.250Z,17.10144
2018-09-24T10:04:03.342Z,16.990662
2018-09-24T10:05:03.343Z,16.567688
2018-09-24T10:06:03.460Z,16.46698
2018-09-24T10:07:03.607Z,16.58783
2018-09-24T10:08:03.592Z,16.889954
2018-09-24T10:09:03.637Z,17.121582
2018-09-24T10:10:03.645Z,17.302856
2018-09-24T10:11:03.814Z,17.272644
2018-09-24T10:12:03.828Z,17.34314
2018-09-24T10:13:03.882Z,17.463989
2018-09-24T10:14:03.998Z,17.463989
2018-09-24T10:15:04.107Z,17.443848
2018-09-24T10:16:04.115Z,17.47406
2018-09-24T10:17:04.262Z,17.625122
2018-09-24T10:18:04.262Z,17.705688
2018-09-24T10:19:04.351Z,17.72583
2018-09-24T10:20:04.475Z,17.685547
2018-09-24T10:21:04.618Z,17.645264
2018-09-24T10:22:04.763Z,17.60498
2018-09-24T10:23:04.735Z,17.645264
2018-09-24T10:24:04.885Z,17.675476
2018-09-24T10:25:05.033Z,17.756042
2018-09-24T10:26:05.127Z,17.756042
2018-09-24T10:27:05.161Z,17.816467
2018-09-24T10:28:05.179Z,17.796326
2018-09-24T10:29:05.327Z,17.655334
2018-09-24T10:30:05.430Z,17.675476
2018-09-24T10:31:05.479Z,17.796326
2018-09-24T10:32:05.511Z,17.745972
2018-09-24T10:33:05.514Z,17.383423
2018-09-24T10:34:05.592Z,17.202148
2018-09-24T10:35:05.677Z,17.141724
2018-09-24T10:36:05.780Z,17.312927
2018-09-24T10:37:05.882Z,17.413635
2018-09-24T10:38:05.944Z,17.494202
2018-09-24T10:39:05.971Z,17.47406
2018-09-24T10:40:06.033Z,17.373352
2018-09-24T10:41:06.205Z,17.373352
2018-09-24T10:42:06.275Z,17.423706
2018-09-24T10:43:06.255Z,17.322998
2018-09-24T10:44:06.223Z,17.383423
2018-09-24T10:45:06.257Z,17.35321
2018-09-24T10:46:06.306Z,17.373352
2018-09-24T10:47:06.387Z,17.393494
2018-09-24T10:48:06.461Z,17.413635
2018-09-24T10:49:06.677Z,17.322998
2018-09-24T10:50:06.650Z,17.373352
2018-09-24T10:51:06.730Z,17.312927
2018-09-24T10:52:06.872Z,17.312927
2018-09-24T10:53:07.070Z,17.443848
2018-09-24T10:54:07.118Z,17.574768
2018-09-24T10:55:07.186Z,17.876892
2018-09-24T10:56:07.330Z,18.027954
2018-09-24T10:57:07.500Z,18.22937
2018-09-24T10:58:07.552Z,18.279724
2018-09-24T10:59:07.667Z,18.158875
2018-09-24T11:00:07.662Z,18.340149
2018-09-24T11:01:07.809Z,18.390503
2018-09-24T11:02:07.843Z,18.299866
2018-09-24T11:03:07.874Z,18.209229
2018-09-24T11:04:08.037Z,17.564697
2018-09-24T11:05:08.001Z,17.47406
2018-09-24T11:06:08.040Z,17.524414
2018-09-24T11:07:08.102Z,17.423706
2018-09-24T11:08:08.224Z,16.859741
2018-09-24T11:09:08.216Z,16.58783
2018-09-24T11:10:08.351Z,16.678467
2018-09-24T11:11:08.312Z,16.58783
2018-09-24T11:12:08.426Z,16.829529
2018-09-24T11:13:08.474Z,16.738892
2018-09-24T11:14:08.599Z,17.010803
2018-09-24T11:15:08.701Z,16.990662
2018-09-24T11:16:08.972Z,17.202148
2018-09-24T11:17:09.325Z,17.413635
2018-09-24T11:18:09.180Z,17.373352
2018-09-24T11:19:09.284Z,17.131653
2018-09-24T11:20:09.434Z,17.131653
2018-09-24T11:21:09.518Z,17.34314
2018-09-24T11:22:09.559Z,17.574768
2018-09-24T11:23:09.647Z,17.796326
2018-09-24T11:24:10.771Z,18.058167
2018-09-24T11:25:09.815Z,18.078308
2018-09-24T11:26:09.833Z,18.108521
2018-09-24T11:27:10.943Z,18.299866
2018-09-24T11:28:10.099Z,18.460999
2018-09-24T11:29:10.077Z,18.612061
2018-09-24T11:30:10.230Z,18.511353
2018-09-24T11:31:10.318Z,18.612061
2018-09-24T11:32:10.249Z,18.702698
2018-09-24T11:33:10.309Z,18.642273
2018-09-24T11:34:10.439Z,18.672485
2018-09-24T11:35:10.533Z,18.521423
2018-09-24T11:36:10.679Z,18.632202
2018-09-24T11:37:10.760Z,18.682556
2018-09-24T11:38:10.847Z,18.813477
2018-09-24T11:39:10.998Z,18.662415
2018-09-24T11:40:11.128Z,18.511353
2018-09-24T11:41:11.175Z,18.410645
2018-09-24T11:42:11.267Z,18.420715
2018-09-24T11:43:11.396Z,18.370361
2018-09-24T11:44:11.500Z,18.360291
2018-09-24T11:45:11.651Z,18.309937
2018-09-24T11:46:11.680Z,18.259583
2018-09-24T11:47:11.812Z,18.279724
2018-09-24T11:48:11.839Z,18.108521
2018-09-24T11:49:11.873Z,17.937317
2018-09-24T11:50:11.892Z,17.907104
2018-09-24T11:51:12.025Z,17.9776
2018-09-24T11:52:12.206Z,17.947388
2018-09-24T11:53:12.240Z,17.967529
2018-09-24T11:54:12.244Z,17.786255